Time;durP1;ratioP1;P1;durP2;ratioP2;P2;SDS_P1;SDS_P2;PMS_P1;PMS_P2;Temp;Humidity;BMP_temperature;BMP_pressure;BME280_temperature;BME280_humidity;BME280_pressure;Samples;Min_cycle;Max_cycle;Signal;HPM_P1;HPM_P2
2023/03/22 00:00:50;;;;;;;14.67;4.00;;;10.10;99.90;;;;;;5155920;27;20280;-83
2023/03/22 00:03:16;;;;;;;13.20;4.20;;;10.10;99.90;;;;;;5155178;27;20601;-83
2023/03/22 00:05:43;;;;;;;17.40;4.43;;;10.10;99.90;;;;;;5155392;27;20299;-83
2023/03/22 00:08:09;;;;;;;14.00;4.67;;;10.00;99.90;;;;;;5155426;27;20491;-83
2023/03/22 00:10:37;;;;;;;13.70;3.93;;;10.00;99.90;;;;;;5137622;27;20629;-83
2023/03/22 00:13:04;;;;;;;15.07;4.20;;;10.00;99.90;;;;;;5155313;27;20275;-83
2023/03/22 00:15:30;;;;;;;9.93;3.70;;;10.00;99.90;;;;;;5155560;27;20658;-83
2023/03/22 00:17:57;;;;;;;11.43;3.17;;;9.90;99.90;;;;;;5136792;27;20328;-82
2023/03/22 00:20:24;;;;;;;15.43;4.10;;;9.90;99.90;;;;;;5155432;27;20038;-83
2023/03/22 00:22:50;;;;;;;13.00;3.30;;;9.90;99.90;;;;;;5155386;27;20280;-83
2023/03/22 00:25:16;;;;;;;9.67;2.77;;;9.90;99.90;;;;;;5155083;27;20742;-83
2023/03/22 00:27:42;;;;;;;14.87;3.40;;;9.90;99.90;;;;;;5155526;27;20065;-83
2023/03/22 00:30:09;;;;;;;13.80;3.80;;;9.90;99.90;;;;;;5154882;27;20750;-82
2023/03/22 00:32:36;;;;;;;13.20;3.77;;;9.80;99.90;;;;;;5136901;27;20051;-83
2023/03/22 00:35:04;;;;;;;12.23;2.97;;;9.80;99.90;;;;;;5154358;27;20285;-82
2023/03/22 00:37:33;;;;;;;17.70;3.53;;;9.80;99.90;;;;;;5137038;27;20303;-83
2023/03/22 00:40:03;;;;;;;10.57;2.90;;;9.80;99.90;;;;;;5154476;27;20799;-82
2023/03/22 00:42:29;;;;;;;14.27;2.97;;;9.80;99.90;;;;;;5154866;27;20287;-83
2023/03/22 00:44:55;;;;;;;12.50;2.90;;;9.80;99.90;;;;;;5154785;27;20283;-83
2023/03/22 00:47:22;;;;;;;13.83;3.40;;;9.80;99.90;;;;;;5136194;27;20283;-82
2023/03/22 00:49:47;;;;;;;16.57;2.67;;;9.80;99.90;;;;;;5155014;27;20180;-81
2023/03/22 00:52:13;;;;;;;10.53;2.60;;;9.80;99.90;;;;;;5154620;27;20317;-81
2023/03/22 00:54:39;;;;;;;10.67;3.27;;;9.80;99.90;;;;;;5154860;27;20039;-81
2023/03/22 00:57:05;;;;;;;14.70;2.90;;;9.80;99.90;;;;;;5136145;27;20046;-82
2023/03/22 00:59:31;;;;;;;9.27;3.20;;;9.80;99.90;;;;;;5136459;27;20047;-83
2023/03/22 01:01:57;;;;;;;13.63;2.57;;;9.80;99.90;;;;;;5136400;27;20042;-82
2023/03/22 01:04:25;;;;;;;13.07;2.47;;;9.80;99.90;;;;;;5154449;27;20287;-81
2023/03/22 01:06:58;;;;;;;11.60;2.70;;;9.80;99.90;;;;;;5154931;27;20276;-83
2023/03/22 01:09:27;;;;;;;11.43;2.80;;;9.80;99.90;;;;;;5154755;27;20312;-82
2023/03/22 01:11:55;;;;;;;13.90;2.43;;;9.80;99.90;;;;;;5154836;27;20298;-82
2023/03/22 01:14:21;;;;;;;10.17;2.77;;;9.80;99.90;;;;;;5154403;27;21164;-82
2023/03/22 01:16:47;;;;;;;9.70;2.10;;;9.70;99.90;;;;;;5154653;27;20276;-82
2023/03/22 01:19:13;;;;;;;12.03;2.33;;;9.80;99.90;;;;;;5154585;27;20280;-82
2023/03/22 01:21:38;;;;;;;10.63;2.30;;;9.70;99.90;;;;;;5155534;27;20508;-83
2023/03/22 01:24:04;;;;;;;14.00;2.80;;;9.70;99.90;;;;;;5154343;27;20085;-82
2023/03/22 01:26:30;;;;;;;9.73;2.20;;;9.70;99.90;;;;;;5154554;27;20554;-82
2023/03/22 01:28:56;;;;;;;10.20;2.00;;;9.70;99.90;;;;;;5154403;27;20043;-83
2023/03/22 01:31:21;;;;;;;12.30;2.80;;;9.70;99.90;;;;;;5154236;27;20079;-84
2023/03/22 01:33:47;;;;;;;11.20;2.13;;;9.70;99.90;;;;;;5154641;27;20378;-84
2023/03/22 01:36:13;;;;;;;9.37;1.93;;;9.70;99.90;;;;;;5135783;27;20126;-82
2023/03/22 01:38:39;;;;;;;12.93;2.53;;;9.70;99.90;;;;;;5154585;27;20051;-81
2023/03/22 01:41:05;;;;;;;11.93;3.10;;;9.70;99.90;;;;;;5135767;27;20047;-80
2023/03/22 01:43:30;;;;;;;9.47;2.07;;;9.60;99.90;;;;;;5154451;27;20035;-83
2023/03/22 01:45:56;;;;;;;12.83;2.63;;;9.60;99.90;;;;;;5136372;27;20774;-84
2023/03/22 01:48:40;;;;;;;13.70;2.57;;;9.60;99.90;;;;;;5139752;27;20050;-83
2023/03/22 01:51:09;;;;;;;13.77;3.23;;;9.60;99.90;;;;;;5158079;27;20053;-79
2023/03/22 01:53:39;;;;;;;10.60;2.93;;;9.60;99.90;;;;;;5158262;27;20378;-82
2023/03/22 01:56:06;;;;;;;12.10;2.67;;;9.60;99.90;;;;;;5139563;27;20272;-84
2023/03/22 01:58:34;;;;;;;15.40;2.83;;;9.60;99.90;;;;;;5158149;27;20272;-82
2023/03/22 02:01:00;;;;;;;11.80;2.93;;;9.60;99.90;;;;;;5158099;27;20756;-82
2023/03/22 02:03:44;;;;;;;9.57;2.17;;;9.60;99.90;;;;;;5157715;27;20367;-84
2023/03/22 02:06:10;;;;;;;13.90;2.93;;;9.60;99.90;;;;;;5139239;27;20054;-83
2023/03/22 02:08:36;;;;;;;10.47;2.30;;;9.60;99.90;;;;;;5158064;27;20328;-83
2023/03/22 02:11:03;;;;;;;10.70;2.73;;;9.60;99.90;;;;;;5158102;27;20089;-83
2023/03/22 02:14:02;;;;;;;12.10;2.70;;;9.60;99.90;;;;;;5157622;27;20062;-82
2023/03/22 02:16:43;;;;;;;11.97;2.37;;;9.60;99.90;;;;;;5157583;27;20875;-83
2023/03/22 02:19:44;;;;;;;17.93;3.30;;;9.60;99.90;;;;;;5139443;27;20287;-80
2023/03/22 02:22:28;;;;;;;11.53;2.93;;;9.60;99.90;;;;;;5139403;27;20376;-81
2023/03/22 02:25:30;;;;;;;11.83;2.90;;;9.60;99.90;;;;;;5157553;27;20292;-83
2023/03/22 02:28:19;;;;;;;10.90;2.30;;;9.60;99.90;;;;;;5157929;27;20272;-83
2023/03/22 02:31:03;;;;;;;10.47;2.63;;;9.60;99.90;;;;;;5157629;27;20280;-82
2023/03/22 02:33:51;;;;;;;8.53;1.80;;;9.60;99.90;;;;;;5157253;27;20291;-81
2023/03/22 02:36:31;;;;;;;15.33;2.70;;;9.60;99.90;;;;;;5157256;27;20284;-83
2023/03/22 02:39:08;;;;;;;10.10;2.37;;;9.60;99.90;;;;;;5157463;27;20272;-85
2023/03/22 02:41:46;;;;;;;12.83;2.70;;;9.60;99.90;;;;;;5157089;27;20345;-84
2023/03/22 02:44:12;;;;;;;14.50;2.50;;;9.60;99.90;;;;;;5157119;27;20296;-82
2023/03/22 02:46:43;;;;;;;12.73;2.50;;;9.60;99.90;;;;;;5157550;27;20722;-83
2023/03/22 02:49:21;;;;;;;16.47;2.87;;;9.60;99.90;;;;;;5139161;27;20054;-84
2023/03/22 02:51:55;;;;;;;13.47;2.70;;;9.60;99.90;;;;;;5156852;27;20287;-84
2023/03/22 02:54:32;;;;;;;11.48;2.03;;;9.70;99.90;;;;;;5156991;27;20266;-83
2023/03/22 02:57:07;;;;;;;12.00;2.23;;;9.70;99.90;;;;;;5138776;27;20049;-83
2023/03/22 02:59:36;;;;;;;;;;;9.70;99.90;;;;;;5157208;27;20276;-83
2023/03/22 03:02:03;;;;;;;11.93;2.33;;;9.70;99.90;;;;;;5157043;27;19926;-83
2023/03/22 03:04:36;;;;;;;14.00;2.50;;;9.70;99.90;;;;;;5156354;27;20321;-83
2023/03/22 03:07:06;;;;;;;13.03;2.40;;;9.70;99.90;;;;;;5138657;27;20323;-83
2023/03/22 03:09:32;;;;;;;10.20;2.33;;;9.70;99.90;;;;;;5156638;27;20341;-83
2023/03/22 03:11:58;;;;;;;12.53;2.70;;;9.70;99.90;;;;;;5157034;27;20665;-83
2023/03/22 03:14:29;;;;;;;12.60;2.30;;;9.70;99.90;;;;;;5138310;27;20280;-83
2023/03/22 03:16:58;;;;;;;11.97;2.27;;;9.70;99.90;;;;;;5156779;27;20126;-83
2023/03/22 03:19:36;;;;;;;12.60;2.73;;;9.70;99.90;;;;;;5156312;27;20280;-83
2023/03/22 03:22:21;;;;;;;9.93;2.07;;;9.70;99.90;;;;;;5156771;27;20301;-83
2023/03/22 03:25:10;;;;;;;12.45;2.70;;;9.70;99.90;;;;;;5156795;27;20303;-83
2023/03/22 03:27:43;;;;;;;14.83;2.90;;;9.70;99.90;;;;;;5156381;27;20046;-83
2023/03/22 03:30:11;;;;;;;15.47;3.00;;;9.70;99.90;;;;;;5138489;27;20284;-84
2023/03/22 03:33:05;;;;;;;10.23;2.53;;;9.70;99.90;;;;;;5120732;27;20331;-82
2023/03/22 03:35:37;;;;;;;10.73;1.93;;;9.70;99.90;;;;;;5137633;27;20272;-83
2023/03/22 03:38:10;;;;;;;11.87;2.60;;;9.70;99.90;;;;;;5156306;27;20358;-83
2023/03/22 03:40:43;;;;;;;15.33;3.00;;;9.70;99.90;;;;;;5137718;27;20820;-83
2023/03/22 03:43:10;;;;;;;12.73;2.93;;;9.60;99.90;;;;;;5156172;27;20276;-83
2023/03/22 03:45:37;;;;;;;13.47;3.03;;;9.70;99.90;;;;;;5137238;27;20296;-83
2023/03/22 03:48:09;;;;;;;12.60;3.13;;;9.60;99.90;;;;;;5156128;27;20638;-84
2023/03/22 03:50:35;;;;;;;11.27;2.80;;;9.70;99.90;;;;;;5155721;27;20337;-83
2023/03/22 03:53:01;;;;;;;13.33;2.87;;;9.60;99.90;;;;;;5155881;27;20272;-82
2023/03/22 03:55:28;;;;;;;15.63;2.93;;;9.60;99.90;;;;;;5155737;27;20035;-82
2023/03/22 03:57:54;;;;;;;13.13;2.50;;;9.60;99.90;;;;;;5155822;27;20320;-82
2023/03/22 04:00:20;;;;;;;13.60;2.90;;;9.70;99.90;;;;;;5137459;27;20370;-80
2023/03/22 04:02:45;;;;;;;15.87;3.80;;;9.70;99.90;;;;;;5155792;27;20046;-82
2023/03/22 04:05:12;;;;;;;14.33;3.53;;;9.60;99.90;;;;;;5155419;27;20058;-82
2023/03/22 04:07:38;;;;;;;14.97;2.67;;;9.70;99.90;;;;;;5155386;27;20059;-82
2023/03/22 04:10:05;;;;;;;13.90;3.37;;;9.60;99.90;;;;;;5154803;27;20284;-82
2023/03/22 04:12:32;;;;;;;10.47;3.27;;;9.70;99.90;;;;;;5155280;27;20276;-82
2023/03/22 04:14:57;;;;;;;11.23;2.90;;;9.70;99.90;;;;;;5137212;27;20295;-83
2023/03/22 04:17:24;;;;;;;10.97;2.60;;;9.70;99.90;;;;;;5155248;27;20276;-83
2023/03/22 04:19:52;;;;;;;12.47;3.17;;;9.70;99.90;;;;;;5155391;27;20538;-83
2023/03/22 04:22:18;;;;;;;13.63;3.53;;;9.60;99.90;;;;;;5155444;27;20601;-83
2023/03/22 04:24:49;;;;;;;13.00;2.90;;;9.70;99.90;;;;;;5154943;27;20299;-83
2023/03/22 04:27:19;;;;;;;13.30;3.13;;;9.60;99.90;;;;;;5155323;27;20508;-84
2023/03/22 04:29:47;;;;;;;13.23;3.47;;;9.60;99.90;;;;;;5155033;27;20268;-82
2023/03/22 04:32:25;;;;;;;12.07;3.07;;;9.60;99.90;;;;;;5155156;27;20695;-83
2023/03/22 04:34:51;;;;;;;12.27;3.20;;;9.60;99.90;;;;;;5155131;27;20264;-83
2023/03/22 04:37:18;;;;;;;11.30;3.13;;;9.60;99.90;;;;;;5155074;27;20268;-83
2023/03/22 04:39:44;;;;;;;9.90;3.67;;;9.60;99.90;;;;;;5154765;27;20826;-81
2023/03/22 04:42:11;;;;;;;16.23;3.80;;;9.60;99.90;;;;;;5155155;27;20410;-82
2023/03/22 04:44:37;;;;;;;12.97;3.50;;;9.60;99.90;;;;;;5154626;27;20291;-82
2023/03/22 04:47:03;;;;;;;14.50;4.47;;;9.60;99.90;;;;;;5136689;27;20288;-83
2023/03/22 04:49:30;;;;;;;12.90;4.47;;;9.60;99.90;;;;;;5154654;27;20046;-82
2023/03/22 04:51:56;;;;;;;13.17;4.83;;;9.60;99.90;;;;;;5155267;27;20366;-83
2023/03/22 04:54:23;;;;;;;12.40;4.67;;;9.60;99.90;;;;;;5154895;27;20268;-83
2023/03/22 04:56:49;;;;;;;12.80;4.70;;;9.60;99.90;;;;;;5154626;27;20315;-82
2023/03/22 04:59:19;;;;;;;13.40;4.53;;;9.60;99.90;;;;;;5136424;27;20283;-83
2023/03/22 05:01:46;;;;;;;15.13;4.93;;;9.60;99.90;;;;;;5154508;27;20280;-82
2023/03/22 05:04:11;;;;;;;12.93;4.60;;;9.60;99.90;;;;;;5154672;27;20288;-82
2023/03/22 05:06:37;;;;;;;10.73;4.83;;;9.60;99.90;;;;;;5154557;27;20763;-83
2023/03/22 05:09:03;;;;;;;9.83;5.63;;;9.60;99.90;;;;;;5154726;27;20525;-84
2023/03/22 05:11:29;;;;;;;15.00;5.80;;;9.60;99.90;;;;;;5154499;27;20057;-83
2023/03/22 05:13:55;;;;;;;14.33;6.07;;;9.60;99.90;;;;;;5154655;27;20122;-84
2023/03/22 05:16:21;;;;;;;15.30;6.93;;;9.60;99.90;;;;;;5136410;27;20125;-83
2023/03/22 05:18:48;;;;;;;13.00;6.60;;;9.60;99.90;;;;;;5154249;27;20355;-83
2023/03/22 05:21:16;;;;;;;17.23;7.17;;;9.60;99.90;;;;;;5157257;27;20055;-84
2023/03/22 05:23:43;;;;;;;15.27;7.03;;;9.70;99.90;;;;;;5158435;27;20282;-83
2023/03/22 05:26:14;;;;;;;14.77;7.80;;;9.60;99.90;;;;;;5158743;27;20709;-83
2023/03/22 05:28:41;;;;;;;15.67;7.97;;;9.60;99.90;;;;;;5158561;27;20291;-82
2023/03/22 05:31:08;;;;;;;15.83;7.53;;;9.70;99.90;;;;;;5140204;27;20336;-83
2023/03/22 05:33:34;;;;;;;18.53;9.13;;;9.70;99.90;;;;;;5158158;27;20284;-83
2023/03/22 05:36:00;;;;;;;16.10;8.83;;;9.70;99.90;;;;;;5158518;27;20287;-83
2023/03/22 05:38:26;;;;;;;16.50;8.53;;;9.70;99.90;;;;;;5158405;27;20100;-83
2023/03/22 05:40:51;;;;;;;14.87;8.90;;;9.70;99.90;;;;;;5158516;27;20551;-82
2023/03/22 05:43:17;;;;;;;16.17;9.23;;;9.70;99.90;;;;;;5140225;27;20182;-82
2023/03/22 05:45:44;;;;;;;18.07;9.77;;;9.70;99.90;;;;;;5139647;27;20082;-82
2023/03/22 05:48:11;;;;;;;16.63;9.67;;;9.70;99.90;;;;;;5158399;27;20043;-82
2023/03/22 05:50:37;;;;;;;16.60;9.77;;;9.70;99.90;;;;;;5158209;27;20311;-82
2023/03/22 05:53:03;;;;;;;16.43;10.13;;;9.80;99.90;;;;;;5158252;27;20291;-82
2023/03/22 05:55:30;;;;;;;18.53;10.97;;;9.80;99.90;;;;;;5158242;27;20276;-82
2023/03/22 05:57:58;;;;;;;17.37;10.00;;;9.70;99.90;;;;;;5139308;27;20635;-81
2023/03/22 06:00:24;;;;;;;19.93;10.50;;;9.80;99.90;;;;;;5102357;27;20320;-82
2023/03/22 06:02:55;;;;;;;17.20;9.50;;;9.80;99.90;;;;;;5137137;27;20363;-82
2023/03/22 06:05:22;;;;;;;16.50;9.67;;;9.80;99.90;;;;;;5137328;27;20798;-83
2023/03/22 06:07:47;;;;;;;18.33;9.90;;;9.80;99.90;;;;;;5137040;27;20273;-81
2023/03/22 06:10:14;;;;;;;20.77;11.30;;;9.80;99.90;;;;;;5137316;27;20696;-82
2023/03/22 06:12:40;;;;;;;18.33;9.53;;;9.90;99.90;;;;;;5136918;27;20043;-82
2023/03/22 06:15:07;;;;;;;18.27;10.47;;;9.90;99.90;;;;;;5137191;27;20271;-82
2023/03/22 06:17:33;;;;;;;20.47;10.27;;;9.90;99.90;;;;;;5137356;27;20077;-82
2023/03/22 06:19:59;;;;;;;20.20;10.47;;;9.90;99.90;;;;;;5136403;27;20764;-82
2023/03/22 06:22:25;;;;;;;18.80;10.70;;;9.90;99.90;;;;;;5137196;27;20280;-82
2023/03/22 06:24:51;;;;;;;19.73;11.30;;;9.90;99.90;;;;;;5136547;27;20039;-82
2023/03/22 06:27:17;;;;;;;20.43;10.53;;;9.90;99.90;;;;;;5118867;27;20281;-83
2023/03/22 06:29:43;;;;;;;20.67;12.67;;;9.90;99.90;;;;;;5136555;27;20047;-83
2023/03/22 06:32:09;;;;;;;21.20;11.97;;;9.90;99.90;;;;;;5136084;27;20693;-83
2023/03/22 06:34:35;;;;;;;17.53;11.97;;;10.00;99.90;;;;;;5136829;27;20772;-83
2023/03/22 06:37:01;;;;;;;19.37;11.73;;;10.00;99.90;;;;;;5136475;27;20313;-82
2023/03/22 06:39:26;;;;;;;26.60;12.63;;;10.00;99.90;;;;;;5136752;27;20127;-82
2023/03/22 06:41:52;;;;;;;18.57;10.87;;;10.00;99.90;;;;;;5136108;27;20039;-82
2023/03/22 06:44:18;;;;;;;18.63;11.67;;;10.10;99.90;;;;;;5136807;27;20035;-83
2023/03/22 06:46:44;;;;;;;17.90;11.07;;;10.10;99.90;;;;;;5136387;27;20358;-83
2023/03/22 06:49:10;;;;;;;19.53;11.80;;;10.20;99.90;;;;;;5136817;27;20047;-83
2023/03/22 06:51:35;;;;;;;19.43;11.17;;;10.20;99.90;;;;;;5118414;27;20390;-82
2023/03/22 06:54:01;;;;;;;18.63;11.20;;;10.30;99.90;;;;;;5117910;27;20039;-82
2023/03/22 06:56:27;;;;;;;17.87;10.73;;;10.30;99.90;;;;;;5118116;27;20126;-83
2023/03/22 06:58:56;;;;;;;19.23;11.60;;;10.30;99.90;;;;;;5117946;27;20043;-83
2023/03/22 07:01:23;;;;;;;19.27;11.17;;;10.30;99.90;;;;;;5136277;27;20054;-84
2023/03/22 07:03:49;;;;;;;16.40;10.97;;;10.30;99.90;;;;;;5135835;27;20283;-82
2023/03/22 07:06:16;;;;;;;20.80;11.77;;;10.30;99.90;;;;;;5136212;27;20737;-82
2023/03/22 07:08:41;;;;;;;19.67;11.67;;;10.30;99.90;;;;;;5117627;27;20631;-80
2023/03/22 07:11:07;;;;;;;15.97;10.43;;;10.30;99.90;;;;;;5136086;27;20285;-81
2023/03/22 07:13:33;;;;;;;16.97;10.43;;;10.30;99.90;;;;;;5136042;27;20043;-81
2023/03/22 07:16:00;;;;;;;20.63;10.30;;;10.30;99.90;;;;;;5117617;27;20055;-81
2023/03/22 07:18:28;;;;;;;19.67;11.03;;;10.40;99.90;;;;;;5135973;27;20483;-82
2023/03/22 07:20:54;;;;;;;16.03;10.50;;;10.40;99.90;;;;;;5135774;27;20338;-81
2023/03/22 07:23:19;;;;;;;24.17;11.17;;;10.40;99.90;;;;;;5135805;27;20342;-81
2023/03/22 07:25:47;;;;;;;18.20;10.10;;;10.40;99.90;;;;;;5117205;27;20301;-81
2023/03/22 07:28:13;;;;;;;16.97;10.13;;;10.40;99.90;;;;;;5135725;27;20505;-81
2023/03/22 07:30:39;;;;;;;18.40;9.67;;;10.40;99.90;;;;;;5100516;27;20280;-81
2023/03/22 07:33:06;;;;;;;16.57;8.93;;;10.40;99.90;;;;;;5117030;27;20787;-82
2023/03/22 07:35:32;;;;;;;17.87;9.63;;;10.40;99.90;;;;;;5135561;27;20036;-82
2023/03/22 07:37:58;;;;;;;23.93;9.57;;;10.50;99.90;;;;;;5135302;27;20280;-81
2023/03/22 07:40:24;;;;;;;14.20;8.30;;;10.50;99.90;;;;;;5135451;27;20586;-81
2023/03/22 07:42:50;;;;;;;16.53;8.57;;;10.60;99.90;;;;;;5117002;27;20039;-81
2023/03/22 07:45:20;;;;;;;15.67;8.57;;;10.70;99.90;;;;;;5134006;27;20822;-82
2023/03/22 07:47:46;;;;;;;14.20;8.17;;;10.70;99.90;;;;;;5135078;27;20682;-80
2023/03/22 07:50:12;;;;;;;14.17;7.63;;;10.80;99.90;;;;;;5135273;27;20277;-81
2023/03/22 07:52:42;;;;;;;14.13;7.03;;;10.80;99.90;;;;;;5135527;27;20148;-82
2023/03/22 07:55:09;;;;;;;18.13;7.87;;;10.80;99.90;;;;;;5134918;27;20269;-81
2023/03/22 07:57:36;;;;;;;18.40;7.90;;;10.80;99.90;;;;;;5116599;27;20670;-82
2023/03/22 08:00:04;;;;;;;19.27;6.70;;;10.80;99.90;;;;;;5134848;27;20288;-81
2023/03/22 08:02:30;;;;;;;15.20;7.33;;;10.80;99.90;;;;;;5135021;27;20285;-82
2023/03/22 08:04:56;;;;;;;18.97;9.23;;;10.80;99.90;;;;;;5134467;27;20384;-81
2023/03/22 08:07:24;;;;;;;15.73;7.03;;;10.80;99.90;;;;;;5135136;27;20502;-81
2023/03/22 08:09:50;;;;;;;15.70;6.80;;;10.90;99.90;;;;;;5134681;27;20051;-80
2023/03/22 08:12:16;;;;;;;14.70;6.90;;;10.90;99.90;;;;;;5134877;27;20371;-81
2023/03/22 08:14:46;;;;;;;16.77;7.20;;;10.90;99.90;;;;;;5134862;27;20272;-82
2023/03/22 08:17:12;;;;;;;13.93;6.67;;;10.90;99.90;;;;;;5116440;27;20281;-82
2023/03/22 08:19:38;;;;;;;14.47;5.83;;;10.90;99.90;;;;;;5116374;27;20321;-82
2023/03/22 08:22:05;;;;;;;19.37;7.17;;;11.00;99.90;;;;;;5134175;27;20047;-82
2023/03/22 08:24:31;;;;;;;13.03;6.47;;;11.00;99.90;;;;;;5134603;27;20176;-85
2023/03/22 08:26:57;;;;;;;18.80;6.93;;;11.10;99.90;;;;;;5134284;27;20309;-83
2023/03/22 08:29:23;;;;;;;14.63;6.10;;;11.10;99.90;;;;;;5134783;27;20050;-83
2023/03/22 08:31:50;;;;;;;17.57;6.27;;;11.10;99.90;;;;;;5134624;27;20116;-84
2023/03/22 08:34:16;;;;;;;17.20;5.20;;;11.20;99.90;;;;;;5134570;27;20363;-83
2023/03/22 08:36:42;;;;;;;12.97;5.33;;;11.30;99.90;;;;;;5134350;27;20418;-83
2023/03/22 08:39:08;;;;;;;11.93;5.70;;;11.40;99.90;;;;;;5134256;27;20445;-83
2023/03/22 08:41:34;;;;;;;13.47;5.03;;;11.40;99.90;;;;;;5134202;27;20475;-79
2023/03/22 08:44:00;;;;;;;9.57;4.97;;;11.50;99.90;;;;;;5115883;27;20787;-79
2023/03/22 08:46:26;;;;;;;15.03;5.63;;;11.40;99.90;;;;;;5134429;27;20306;-82
2023/03/22 08:48:52;;;;;;;16.27;5.70;;;11.40;99.90;;;;;;5116372;27;20081;-81
2023/03/22 08:51:24;;;;;;;16.97;6.07;;;11.40;99.90;;;;;;5116181;27;20047;-80
2023/03/22 08:53:49;;;;;;;18.47;6.30;;;11.30;99.90;;;;;;5115991;27;20289;-80
2023/03/22 08:56:15;;;;;;;19.80;6.37;;;11.30;99.90;;;;;;5115305;27;20295;-80
2023/03/22 08:58:45;;;;;;;14.70;5.37;;;11.30;99.90;;;;;;5082401;28;20057;-80
2023/03/22 09:01:12;;;;;;;16.47;6.07;;;11.30;99.90;;;;;;5115847;28;20089;-80
2023/03/22 09:03:38;;;;;;;15.83;4.83;;;11.30;99.90;;;;;;5115891;28;20284;-79
2023/03/22 09:06:05;;;;;;;15.73;4.83;;;11.20;99.90;;;;;;5133765;27;20316;-80
2023/03/22 09:08:32;;;;;;;11.47;4.93;;;11.30;99.90;;;;;;5134229;27;20628;-81
2023/03/22 09:10:58;;;;;;;14.53;5.23;;;11.20;99.90;;;;;;5098770;28;20281;-79
2023/03/22 09:13:24;;;;;;;11.60;4.17;;;11.20;99.90;;;;;;5134415;28;20291;-79
2023/03/22 09:15:53;;;;;;;14.63;5.33;;;11.20;99.90;;;;;;5099023;28;20479;-78
2023/03/22 09:18:19;;;;;;;11.93;4.40;;;11.20;99.90;;;;;;5115666;28;20453;-78
2023/03/22 09:20:45;;;;;;;16.53;4.63;;;11.20;99.90;;;;;;5098825;28;20293;-79
2023/03/22 09:23:12;;;;;;;13.37;4.67;;;11.20;99.90;;;;;;5133589;28;20044;-79
2023/03/22 09:25:37;;;;;;;14.67;4.27;;;11.10;99.90;;;;;;5115697;28;20304;-80
2023/03/22 09:28:03;;;;;;;13.10;4.80;;;11.10;99.90;;;;;;5115877;28;20280;-79
2023/03/22 09:30:29;;;;;;;10.57;4.13;;;11.10;99.90;;;;;;5134266;28;20051;-79
2023/03/22 09:32:55;;;;;;;12.93;3.67;;;11.10;99.90;;;;;;5134140;28;20050;-79
2023/03/22 09:35:21;;;;;;;12.03;3.80;;;11.10;99.90;;;;;;5133804;28;20130;-79
2023/03/22 09:37:48;;;;;;;12.63;4.23;;;11.00;99.90;;;;;;5133981;28;20043;-80
2023/03/22 09:40:16;;;;;;;10.47;4.20;;;11.00;99.90;;;;;;5115650;28;20330;-79
2023/03/22 09:42:51;;;;;;;14.67;4.33;;;11.00;99.90;;;;;;5134298;28;20750;-79
2023/03/22 09:45:21;;;;;;;14.65;4.50;;;11.00;99.90;;;;;;5115382;28;20316;-79
2023/03/22 09:47:52;;;;;;;11.90;4.00;;;11.00;99.90;;;;;;5134108;28;20581;-79
2023/03/22 09:50:24;;;;;;;10.70;3.60;;;10.90;99.90;;;;;;5133609;28;20273;-78
2023/03/22 09:52:52;;;;;;;15.53;3.97;;;10.90;99.90;;;;;;5128708;27;20642;-81
2023/03/22 09:56:00;;;;;;;12.93;4.43;;;10.90;99.90;;;;;;5135217;27;20268;-80
2023/03/22 09:59:05;;;;;;;13.20;3.40;;;10.90;99.90;;;;;;5134298;27;20316;-81
2023/03/22 10:01:43;;;;;;;10.60;3.43;;;10.90;99.90;;;;;;5125771;27;20670;-84
2023/03/22 10:04:33;;;;;;;15.90;3.80;;;10.80;99.90;;;;;;5153547;27;20343;-85
2023/03/22 10:07:08;;;;;;;12.60;3.23;;;10.80;99.90;;;;;;5151978;27;20296;-83
2023/03/22 10:09:39;;;;;;;11.40;3.00;;;10.80;99.90;;;;;;5155139;27;20315;-83
2023/03/22 10:12:22;;;;;;;9.83;2.57;;;10.70;99.90;;;;;;5139052;27;20320;-85
2023/03/22 10:15:04;;;;;;;10.37;2.93;;;10.70;99.90;;;;;;5157108;27;20307;-82
2023/03/22 10:17:30;;;;;;;9.40;3.13;;;10.70;99.90;;;;;;5138340;27;20774;-80
2023/03/22 10:20:30;;;;;;;12.50;3.70;;;10.70;99.90;;;;;;5119648;27;20352;-83
2023/03/22 10:23:00;;;;;;;10.13;3.20;;;10.70;99.90;;;;;;5137172;27;20277;-82
2023/03/22 10:25:38;;;;;;;15.10;3.50;;;10.70;99.90;;;;;;5118603;27;20300;-81
2023/03/22 10:28:33;;;;;;;8.07;3.03;;;10.70;99.90;;;;;;5137159;27;20276;-82
2023/03/22 10:30:59;;;;;;;9.60;3.00;;;10.70;99.90;;;;;;5108589;27;20308;-83
2023/03/22 10:33:38;;;;;;;7.57;2.50;;;10.60;99.90;;;;;;5150719;27;20287;-81
2023/03/22 10:36:08;;;;;;;11.40;3.77;;;10.60;99.90;;;;;;5137997;27;20074;-85
2023/03/22 10:38:47;;;;;;;9.60;2.97;;;10.60;99.90;;;;;;5154967;27;20283;-82
2023/03/22 10:41:17;;;;;;;7.80;2.70;;;10.60;99.90;;;;;;5135987;27;20359;-84
2023/03/22 10:43:44;;;;;;;7.20;2.57;;;10.60;99.90;;;;;;5138904;27;20770;-83
2023/03/22 10:46:18;;;;;;;8.87;3.67;;;10.60;99.90;;;;;;5156667;27;20656;-84
2023/03/22 10:48:47;;;;;;;11.77;3.50;;;10.70;99.90;;;;;;5156855;27;20759;-84
2023/03/22 10:51:42;;;;;;;7.53;3.00;;;10.70;99.90;;;;;;5135910;27;20283;-84
2023/03/22 10:54:13;;;;;;;11.27;3.17;;;10.60;99.90;;;;;;5157018;27;20804;-80
2023/03/22 10:56:38;;;;;;;8.70;3.13;;;10.60;99.90;;;;;;5156224;27;20287;-80
2023/03/22 10:59:04;;;;;;;11.80;3.57;;;10.70;99.90;;;;;;5156958;27;20301;-80
2023/03/22 11:01:40;;;;;;;8.87;2.97;;;10.70;99.90;;;;;;5138548;27;20058;-80
2023/03/22 11:04:07;;;;;;;;;;;10.70;99.90;;;;;;5157614;27;20273;-80
2023/03/22 11:06:39;;;;;;;9.77;2.77;;;10.70;99.90;;;;;;5134847;27;19919;-80
2023/03/22 11:09:22;;;;;;;9.37;2.90;;;10.70;99.90;;;;;;5136375;27;20293;-79
2023/03/22 11:11:54;;;;;;;9.07;3.67;;;10.80;99.90;;;;;;5136426;27;20273;-79
2023/03/22 11:14:31;;;;;;;10.37;2.87;;;10.80;99.90;;;;;;5135943;27;20314;-79
2023/03/22 11:17:05;;;;;;;8.13;2.60;;;10.80;99.90;;;;;;5136430;27;20402;-79
2023/03/22 11:19:40;;;;;;;9.80;3.33;;;10.90;99.90;;;;;;5135632;27;20300;-79
2023/03/22 11:22:32;;;;;;;7.82;2.85;;;10.90;99.90;;;;;;5117814;27;20483;-79
2023/03/22 11:24:59;;;;;;;8.03;2.73;;;10.90;99.90;;;;;;5121238;27;20062;-79
2023/03/22 11:27:32;;;;;;;13.60;3.80;;;10.90;99.90;;;;;;5134745;27;20289;-79
2023/03/22 11:30:16;;;;;;;8.33;3.23;;;10.90;99.90;;;;;;5135980;27;20389;-79
2023/03/22 11:32:41;;;;;;;8.73;3.03;;;10.90;99.90;;;;;;5135923;27;20277;-78
2023/03/22 11:35:22;;;;;;;11.63;2.97;;;10.90;99.90;;;;;;5134879;27;20296;-79
2023/03/22 11:37:53;;;;;;;11.20;3.27;;;11.00;99.90;;;;;;5136076;27;20039;-79
2023/03/22 11:40:31;;;;;;;10.07;2.90;;;10.90;99.90;;;;;;5135532;27;20277;-79
2023/03/22 11:43:25;;;;;;;10.77;3.33;;;11.00;99.90;;;;;;5135953;27;20277;-79
2023/03/22 11:45:56;;;;;;;9.87;3.03;;;11.10;99.90;;;;;;5132717;27;20839;-79
2023/03/22 11:48:25;;;;;;;11.33;3.67;;;11.10;99.90;;;;;;5135360;27;20281;-79
2023/03/22 11:51:14;;;;;;;11.10;3.80;;;11.10;99.90;;;;;;5135593;27;20281;-80
2023/03/22 11:53:43;;;;;;;9.83;3.33;;;11.10;99.90;;;;;;5135354;27;20273;-79
2023/03/22 11:56:15;;;;;;;9.23;3.47;;;11.10;99.90;;;;;;5135082;27;20277;-79
2023/03/22 11:58:49;;;;;;;11.33;3.40;;;11.20;99.90;;;;;;5135560;27;20309;-80
2023/03/22 12:01:26;;;;;;;11.83;3.50;;;11.20;99.90;;;;;;5135528;27;20292;-79
2023/03/22 12:03:55;;;;;;;10.33;3.40;;;11.10;99.90;;;;;;5134601;27;20371;-79
2023/03/22 12:06:28;;;;;;;10.53;3.00;;;11.10;99.90;;;;;;5133566;27;20296;-79
2023/03/22 12:09:09;;;;;;;7.57;2.83;;;11.10;99.90;;;;;;5134042;27;20652;-81
2023/03/22 12:11:45;;;;;;;11.40;2.97;;;11.10;99.90;;;;;;5134957;27;20280;-82
2023/03/22 12:14:50;;;;;;;9.90;2.93;;;11.10;99.90;;;;;;5135197;27;20380;-81
2023/03/22 12:17:27;;;;;;;10.90;3.20;;;11.10;99.90;;;;;;5117129;27;20308;-80
2023/03/22 12:19:56;;;;;;;10.30;2.87;;;11.10;99.90;;;;;;5134041;27;20757;-78
2023/03/22 12:22:30;;;;;;;10.37;3.13;;;11.10;99.90;;;;;;5134446;27;20280;-78
2023/03/22 12:24:57;;;;;;;8.53;3.10;;;11.10;99.90;;;;;;5134721;27;20303;-78
2023/03/22 12:27:30;;;;;;;9.07;3.43;;;11.10;99.90;;;;;;5134516;27;20304;-79
2023/03/22 12:30:11;;;;;;;10.60;3.60;;;11.10;99.90;;;;;;5134356;27;20633;-77
2023/03/22 12:32:43;;;;;;;8.10;3.10;;;11.10;99.90;;;;;;5132567;27;20292;-76
2023/03/22 12:35:20;;;;;;;10.63;3.30;;;11.00;99.90;;;;;;5132285;27;20273;-76
2023/03/22 12:37:50;;;;;;;13.43;3.43;;;11.00;99.90;;;;;;5131649;27;20280;-83
2023/03/22 12:40:27;;;;;;;11.27;3.20;;;11.00;99.90;;;;;;5130496;27;20277;-81
2023/03/22 12:43:14;;;;;;;11.47;3.67;;;11.00;99.90;;;;;;5134440;27;20281;-80
2023/03/22 12:45:47;;;;;;;9.70;3.30;;;11.00;99.90;;;;;;5132944;27;20345;-80
2023/03/22 12:48:23;;;;;;;12.03;3.80;;;10.90;99.90;;;;;;5134703;27;20641;-82
2023/03/22 12:50:56;;;;;;;12.90;4.10;;;10.90;99.90;;;;;;5133609;27;20284;-80
2023/03/22 12:53:25;;;;;;;9.20;4.30;;;10.90;99.90;;;;;;5133232;27;20280;-80
2023/03/22 12:55:51;;;;;;;11.00;3.47;;;10.90;99.90;;;;;;5134243;27;20277;-80
2023/03/22 12:58:24;;;;;;;8.97;4.10;;;10.90;99.90;;;;;;5134136;27;20276;-80